createdAt,value
2019-02-21T00:01:43.061Z,9.07
2019-02-21T00:04:24.486Z,11.00
2019-02-21T00:07:05.954Z,10.47
2019-02-21T00:09:47.690Z,10.47
2019-02-21T00:12:29.215Z,8.67
2019-02-21T00:15:10.550Z,9.07
2019-02-21T00:17:52.371Z,11.17
2019-02-21T00:20:33.586Z,11.83
2019-02-21T00:23:15.198Z,8.93
2019-02-21T00:25:56.730Z,12.37
2019-02-21T00:28:37.929Z,10.73
2019-02-21T00:31:19.590Z,9.90
2019-02-21T00:33:49.876Z,13.27
2019-02-21T00:36:19.642Z,10.47
2019-02-21T00:38:49.760Z,10.37
2019-02-21T00:41:20.815Z,9.73
2019-02-21T00:43:50.587Z,12.90
2019-02-21T00:46:20.245Z,10.23
2019-02-21T00:48:50.218Z,9.87
2019-02-21T00:51:20.025Z,13.80
2019-02-21T00:53:50.337Z,11.23
2019-02-21T00:56:20.289Z,11.37
2019-02-21T00:58:53.221Z,10.00
2019-02-21T01:01:22.952Z,10.40
2019-02-21T01:03:57.661Z,13.90
2019-02-21T01:06:27.559Z,11.13
2019-02-21T01:09:00.274Z,10.63
2019-02-21T01:11:30.283Z,13.03
2019-02-21T01:14:02.074Z,11.50
2019-02-21T01:16:31.798Z,11.27
2019-02-21T01:19:06.065Z,11.27
2019-02-21T01:21:35.778Z,11.13
2019-02-21T01:24:10.649Z,9.83
2019-02-21T01:26:40.658Z,12.20
2019-02-21T01:29:12.313Z,14.87
2019-02-21T01:31:42.040Z,12.30
2019-02-21T01:34:16.220Z,10.50
2019-02-21T01:36:45.903Z,12.73
2019-02-21T01:39:18.783Z,12.20
2019-02-21T01:41:48.759Z,12.57
2019-02-21T01:44:20.945Z,10.60
2019-02-21T01:46:50.665Z,11.93
2019-02-21T01:49:39.399Z,13.03
2019-02-21T01:55:02.626Z,13.60
2019-02-21T01:57:44.138Z,13.30
2019-02-21T02:00:25.160Z,15.53
2019-02-21T02:03:06.700Z,18.03
2019-02-21T02:05:48.117Z,18.63
2019-02-21T02:11:11.778Z,20.23
2019-02-21T02:13:53.326Z,18.83
2019-02-21T02:16:35.021Z,19.03
2019-02-21T02:19:16.558Z,17.10
2019-02-21T02:21:58.233Z,23.37
2019-02-21T02:24:39.478Z,18.87
2019-02-21T02:27:21.168Z,20.33
2019-02-21T02:30:02.707Z,23.43
2019-02-21T02:32:47.366Z,23.67
2019-02-21T02:35:28.646Z,24.10
2019-02-21T02:38:10.510Z,25.80
2019-02-21T02:40:52.149Z,22.97
2019-02-21T02:43:33.500Z,22.50
2019-02-21T02:46:14.830Z,23.53
2019-02-21T02:48:56.461Z,24.13
2019-02-21T02:51:38.029Z,23.93
2019-02-21T02:54:19.625Z,23.30
2019-02-21T02:59:41.343Z,27.10
2019-02-21T03:02:23.034Z,24.40
2019-02-21T03:05:03.921Z,26.00
2019-02-21T03:07:34.487Z,23.83
2019-02-21T03:10:23.253Z,28.30
2019-02-21T03:22:43.440Z,28.03
2019-02-21T03:25:31.411Z,22.67
2019-02-21T03:34:10.675Z,27.43
2019-02-21T03:36:50.786Z,26.03
2019-02-21T03:39:39.441Z,24.40
2019-02-21T03:42:29.469Z,23.17
2019-02-21T03:44:59.404Z,23.03
2019-02-21T03:47:48.170Z,25.50
2019-02-21T03:50:18.357Z,21.27
2019-02-21T03:52:48.036Z,28.00
2019-02-21T03:55:17.944Z,22.93
2019-02-21T03:58:06.633Z,24.17
2019-02-21T04:00:36.517Z,23.53
2019-02-21T04:03:25.173Z,23.50
2019-02-21T04:09:53.700Z,23.57
2019-02-21T04:12:42.395Z,25.47
2019-02-21T04:15:31.113Z,20.90
2019-02-21T04:18:19.876Z,22.37
2019-02-21T04:20:49.913Z,24.13
2019-02-21T04:26:29.151Z,21.17
2019-02-21T04:29:18.018Z,19.20
2019-02-21T04:32:16.572Z,18.07
2019-02-21T04:34:57.853Z,22.17
2019-02-21T04:40:46.567Z,17.37
2019-02-21T04:43:16.614Z,18.23
2019-02-21T04:46:05.273Z,19.90
2019-02-21T04:51:53.105Z,22.00
2019-02-21T04:54:23.557Z,18.00
2019-02-21T04:56:53.324Z,19.07
2019-02-21T04:59:23.202Z,16.87
2019-02-21T05:01:54.330Z,19.13
2019-02-21T05:04:24.087Z,20.17
2019-02-21T05:06:53.782Z,17.33
2019-02-21T05:09:23.923Z,21.33
2019-02-21T05:11:53.625Z,17.63
2019-02-21T05:14:23.378Z,19.00
2019-02-21T05:16:53.420Z,24.10
2019-02-21T05:19:23.574Z,21.17
2019-02-21T05:21:53.222Z,16.27
2019-02-21T05:24:24.050Z,18.77
2019-02-21T05:26:57.983Z,16.97
2019-02-21T05:29:27.970Z,22.47
2019-02-21T05:32:24.988Z,20.17
2019-02-21T05:35:12.277Z,19.93
2019-02-21T05:38:07.807Z,19.13
2019-02-21T05:40:56.297Z,15.73
2019-02-21T05:43:51.481Z,22.03
2019-02-21T05:46:34.697Z,21.17
2019-02-21T05:49:16.552Z,18.10
2019-02-21T05:51:54.084Z,19.87
2019-02-21T05:54:43.318Z,20.17
2019-02-21T05:57:31.293Z,20.50
2019-02-21T06:00:25.743Z,20.50
2019-02-21T06:03:17.599Z,23.77
2019-02-21T06:05:54.459Z,21.30
2019-02-21T06:08:47.293Z,23.37
2019-02-21T06:11:28.039Z,27.93
2019-02-21T06:14:29.009Z,23.73
2019-02-21T06:17:17.597Z,22.93
2019-02-21T06:20:03.600Z,23.83
2019-02-21T06:22:53.789Z,24.17
2019-02-21T06:25:50.800Z,27.70
2019-02-21T06:28:27.229Z,23.40
2019-02-21T06:31:03.860Z,22.50
2019-02-21T06:33:33.590Z,29.30
2019-02-21T06:36:04.751Z,30.63
2019-02-21T06:38:34.453Z,24.03
2019-02-21T06:41:06.389Z,24.30
2019-02-21T06:43:37.310Z,23.93
2019-02-21T06:46:10.541Z,28.60
2019-02-21T06:48:40.390Z,28.47
2019-02-21T06:51:15.538Z,26.63
2019-02-21T06:53:45.243Z,34.37
2019-02-21T06:56:16.587Z,29.17
2019-02-21T06:58:46.716Z,27.07
2019-02-21T07:01:28.962Z,31.87
2019-02-21T07:03:51.021Z,27.33
2019-02-21T07:06:31.457Z,26.53
2019-02-21T07:08:54.218Z,27.57
2019-02-21T07:11:25.381Z,28.03
2019-02-21T07:13:55.450Z,30.57
2019-02-21T07:16:44.330Z,28.93
2019-02-21T07:19:14.427Z,29.20
2019-02-21T07:22:03.208Z,32.27
2019-02-21T07:24:33.564Z,25.90
2019-02-21T07:27:03.374Z,26.90
2019-02-21T07:29:33.199Z,27.13
2019-02-21T07:32:03.313Z,26.77
2019-02-21T07:34:52.066Z,24.77
2019-02-21T07:37:22.100Z,25.73
2019-02-21T07:39:51.941Z,28.00
2019-02-21T07:42:21.770Z,26.77
2019-02-21T07:45:02.985Z,23.17
2019-02-21T07:47:46.806Z,25.43
2019-02-21T07:50:04.367Z,25.60
2019-02-21T07:52:34.420Z,25.67
2019-02-21T07:55:04.388Z,24.80
2019-02-21T07:57:34.135Z,23.77
2019-02-21T08:00:04.291Z,27.63
2019-02-21T08:02:54.522Z,34.23
2019-02-21T08:05:24.623Z,31.63
2019-02-21T08:07:54.473Z,29.67
2019-02-21T08:10:43.244Z,28.87
2019-02-21T08:13:13.119Z,23.77
2019-02-21T08:15:43.349Z,28.10
2019-02-21T08:18:13.152Z,25.87
2019-02-21T08:20:42.902Z,22.03
2019-02-21T08:23:12.916Z,30.27
2019-02-21T08:25:43.046Z,25.23
2019-02-21T08:28:12.777Z,27.03
2019-02-21T08:30:42.844Z,24.00
2019-02-21T08:33:31.499Z,22.63
2019-02-21T08:36:20.236Z,20.77
2019-02-21T08:41:32.381Z,23.37
2019-02-21T08:44:02.172Z,24.43
2019-02-21T08:46:32.871Z,24.57
2019-02-21T08:49:02.935Z,24.40
2019-02-21T08:51:32.726Z,24.60
2019-02-21T08:54:05.428Z,21.37
2019-02-21T08:56:34.188Z,26.33
2019-02-21T08:59:19.723Z,21.97
2019-02-21T09:01:35.825Z,23.07
2019-02-21T09:04:10.538Z,24.67
2019-02-21T09:09:17.618Z,20.83
2019-02-21T09:11:47.347Z,25.07
2019-02-21T09:14:35.964Z,21.83
2019-02-21T09:17:06.028Z,22.77
2019-02-21T09:19:36.826Z,25.70
2019-02-21T09:22:06.726Z,22.23
2019-02-21T09:24:55.475Z,25.00
2019-02-21T09:27:25.826Z,24.07
2019-02-21T09:29:55.834Z,21.80
2019-02-21T09:32:25.671Z,22.90
2019-02-21T09:34:55.467Z,23.43
2019-02-21T09:37:25.976Z,23.83
2019-02-21T09:39:55.749Z,24.50
2019-02-21T09:42:25.914Z,21.37
2019-02-21T09:44:56.403Z,25.17
2019-02-21T09:47:37.905Z,17.40
2019-02-21T09:53:17.404Z,20.60
2019-02-21T09:58:37.783Z,24.50
2019-02-21T10:01:07.867Z,27.17
2019-02-21T10:03:38.007Z,18.57
2019-02-21T10:06:08.455Z,20.83
2019-02-21T10:08:41.010Z,20.50
2019-02-21T10:11:11.552Z,23.33
2019-02-21T10:13:41.529Z,21.93
2019-02-21T10:16:11.633Z,21.47
2019-02-21T10:18:41.436Z,20.90
2019-02-21T10:21:30.198Z,24.57
2019-02-21T10:23:59.997Z,22.60
2019-02-21T10:26:30.059Z,24.07
2019-02-21T10:29:20.280Z,23.27
2019-02-21T10:31:50.343Z,25.77
2019-02-21T10:34:42.907Z,21.93
2019-02-21T10:37:10.781Z,19.67
2019-02-21T10:42:40.038Z,27.27
2019-02-21T10:45:12.626Z,21.27
2019-02-21T10:47:42.672Z,24.93
2019-02-21T10:50:18.193Z,19.23
2019-02-21T10:52:48.062Z,24.40
2019-02-21T10:55:19.202Z,17.97
2019-02-21T10:57:49.130Z,25.33
2019-02-21T11:00:21.551Z,17.57
2019-02-21T11:02:51.702Z,22.43
2019-02-21T11:05:21.488Z,24.23
2019-02-21T11:07:51.296Z,25.90
2019-02-21T11:10:23.989Z,22.97
2019-02-21T11:12:53.738Z,22.13
2019-02-21T11:15:24.357Z,20.53
2019-02-21T11:17:54.504Z,23.07
2019-02-21T11:20:24.230Z,28.97
2019-02-21T11:22:54.429Z,25.03
2019-02-21T11:25:24.580Z,24.80
2019-02-21T11:27:54.398Z,21.87
2019-02-21T11:30:24.237Z,23.27
2019-02-21T11:32:54.338Z,27.27
2019-02-21T11:41:32.607Z,21.10
2019-02-21T11:44:02.714Z,22.27
2019-02-21T11:46:32.586Z,22.97
2019-02-21T11:49:02.499Z,24.03
2019-02-21T11:51:33.428Z,20.17
2019-02-21T11:54:40.999Z,23.37
2019-02-21T11:57:11.113Z,23.63
2019-02-21T11:59:40.957Z,19.97
2019-02-21T12:02:38.659Z,23.73
2019-02-21T12:05:01.405Z,24.40
2019-02-21T12:07:31.219Z,22.87
2019-02-21T12:10:03.388Z,23.40
2019-02-21T12:12:33.308Z,25.03
2019-02-21T12:15:03.160Z,20.53
2019-02-21T12:17:33.043Z,25.00
2019-02-21T12:20:04.847Z,23.50
2019-02-21T12:22:37.046Z,22.63
2019-02-21T12:25:08.375Z,20.67
2019-02-21T12:30:44.270Z,20.97
2019-02-21T12:33:14.122Z,19.80
2019-02-21T12:35:44.147Z,24.70
2019-02-21T12:38:13.955Z,23.77
2019-02-21T12:40:43.881Z,22.53
2019-02-21T12:43:13.988Z,21.17
2019-02-21T12:45:45.273Z,25.00
2019-02-21T12:48:15.075Z,23.60
2019-02-21T12:50:45.176Z,21.80
2019-02-21T12:53:28.242Z,22.17
2019-02-21T12:55:59.734Z,21.03
2019-02-21T12:58:29.575Z,18.60
2019-02-21T13:01:00.982Z,23.20
2019-02-21T13:03:49.729Z,20.33
2019-02-21T13:06:19.637Z,18.83
2019-02-21T13:08:49.762Z,19.33
2019-02-21T13:11:19.799Z,21.70
2019-02-21T13:14:08.674Z,28.80
2019-02-21T13:16:41.026Z,15.73
2019-02-21T13:19:29.975Z,17.23
2019-02-21T13:22:00.192Z,18.73
2019-02-21T13:24:30.044Z,17.43
2019-02-21T13:27:00.548Z,19.47
2019-02-21T13:29:30.583Z,18.80
2019-02-21T13:32:00.730Z,15.03
2019-02-21T13:34:49.830Z,16.37
2019-02-21T13:37:28.127Z,19.83
2019-02-21T13:40:11.315Z,18.20
2019-02-21T13:42:41.328Z,19.17
2019-02-21T13:45:12.569Z,17.67
2019-02-21T13:47:42.336Z,16.57
2019-02-21T13:50:31.347Z,19.20
2019-02-21T13:53:02.373Z,15.20
2019-02-21T13:55:51.130Z,18.80
2019-02-21T13:58:32.886Z,23.27
2019-02-21T14:03:45.459Z,16.67
2019-02-21T14:06:34.272Z,18.80
2019-02-21T14:09:05.694Z,20.03
2019-02-21T14:11:36.181Z,18.40
2019-02-21T14:14:06.242Z,17.17
2019-02-21T14:16:46.251Z,19.13
2019-02-21T14:19:08.389Z,18.40
2019-02-21T14:21:38.750Z,18.70
2019-02-21T14:24:08.506Z,18.33
2019-02-21T14:26:39.611Z,17.03
2019-02-21T14:29:47.344Z,23.83
2019-02-21T14:32:17.484Z,16.67
2019-02-21T14:35:06.476Z,18.73
2019-02-21T14:41:04.878Z,19.27
2019-02-21T14:43:41.594Z,16.47
2019-02-21T14:46:11.356Z,18.80
2019-02-21T14:48:44.956Z,19.13
2019-02-21T14:51:15.558Z,19.53
2019-02-21T14:53:48.714Z,19.43
2019-02-21T14:56:20.032Z,21.37
2019-02-21T14:58:51.483Z,21.77
2019-02-21T15:01:21.334Z,21.83
2019-02-21T15:03:52.097Z,19.97
2019-02-21T15:06:27.003Z,17.10
2019-02-21T15:08:56.691Z,25.63
2019-02-21T15:11:26.476Z,23.07
2019-02-21T15:13:57.945Z,19.27
2019-02-21T15:16:27.761Z,25.83
2019-02-21T15:19:04.415Z,21.20
2019-02-21T15:21:34.295Z,20.57
2019-02-21T15:24:06.896Z,23.67
2019-02-21T15:26:36.686Z,24.37
2019-02-21T15:29:09.413Z,23.77
2019-02-21T15:31:39.495Z,25.97
2019-02-21T15:34:12.561Z,22.90
2019-02-21T15:36:42.374Z,24.53
2019-02-21T15:39:15.572Z,24.50
2019-02-21T15:41:45.340Z,27.17
2019-02-21T15:44:17.124Z,26.20
2019-02-21T15:46:46.873Z,24.03
2019-02-21T15:49:18.113Z,23.27
2019-02-21T15:51:48.160Z,19.57
2019-02-21T15:54:22.226Z,24.03
2019-02-21T15:56:52.020Z,28.33
2019-02-21T15:59:25.136Z,23.70
2019-02-21T16:01:55.054Z,23.13
2019-02-21T16:04:25.894Z,25.73
2019-02-21T16:06:56.407Z,25.23
2019-02-21T16:09:38.011Z,23.40
2019-02-21T16:12:19.504Z,23.67
2019-02-21T16:15:00.948Z,21.13
2019-02-21T16:17:42.918Z,22.00
2019-02-21T16:20:24.275Z,19.97
2019-02-21T16:23:05.392Z,25.27
2019-02-21T16:25:47.129Z,24.70
2019-02-21T16:28:28.576Z,22.13
2019-02-21T16:30:59.433Z,23.83
2019-02-21T16:33:29.543Z,25.83
2019-02-21T16:36:01.646Z,24.63
2019-02-21T16:38:31.474Z,23.40
2019-02-21T16:41:04.256Z,24.80
2019-02-21T16:46:51.503Z,23.53
2019-02-21T16:49:05.362Z,21.33
2019-02-21T16:51:53.604Z,23.07
2019-02-21T16:54:22.701Z,25.37
2019-02-21T16:57:11.643Z,26.63
2019-02-21T16:59:43.263Z,28.73
2019-02-21T17:02:13.206Z,29.53
2019-02-21T17:04:43.024Z,27.17
2019-02-21T17:07:16.143Z,23.53
2019-02-21T17:10:08.106Z,23.00
2019-02-21T17:15:27.050Z,25.73
2019-02-21T17:18:15.941Z,25.97
2019-02-21T17:20:46.107Z,27.50
2019-02-21T17:23:22.785Z,30.33
2019-02-21T17:26:01.542Z,26.20
2019-02-21T17:28:20.075Z,24.23
2019-02-21T17:31:16.100Z,26.37
2019-02-21T17:33:59.292Z,26.53
2019-02-21T17:36:29.294Z,31.80
2019-02-21T17:39:37.176Z,26.60
2019-02-21T17:53:35.876Z,30.43
2019-02-21T17:56:16.655Z,26.63
2019-02-21T17:58:58.501Z,27.87
2019-02-21T18:04:22.494Z,25.93
2019-02-21T18:07:04.231Z,34.40
2019-02-21T18:09:45.172Z,29.70
2019-02-21T18:12:15.428Z,28.47
2019-02-21T18:14:45.264Z,29.27
2019-02-21T18:17:15.151Z,30.57
2019-02-21T18:19:58.057Z,34.50
2019-02-21T18:22:18.027Z,29.60
2019-02-21T18:24:48.235Z,30.23
2019-02-21T18:27:18.461Z,36.57
2019-02-21T18:30:07.601Z,30.93
2019-02-21T18:32:37.745Z,27.63
2019-02-21T18:35:08.584Z,30.27
2019-02-21T18:40:37.996Z,30.87
2019-02-21T18:43:26.876Z,30.63
2019-02-21T18:46:15.737Z,31.40
2019-02-21T18:49:04.687Z,26.60
2019-02-21T18:51:34.546Z,33.63
2019-02-21T18:54:23.443Z,31.27
2019-02-21T18:57:12.518Z,33.07
2019-02-21T19:00:22.086Z,32.23
2019-02-21T19:02:52.063Z,33.00
2019-02-21T19:05:22.368Z,36.63
2019-02-21T19:08:12.487Z,30.83
2019-02-21T19:11:01.349Z,31.40
2019-02-21T19:13:31.422Z,34.77
2019-02-21T19:16:20.350Z,36.67
2019-02-21T19:21:52.319Z,29.07
2019-02-21T19:24:22.238Z,31.43
2019-02-21T19:26:53.489Z,36.57
2019-02-21T19:29:24.023Z,33.03
2019-02-21T19:32:12.916Z,31.57
2019-02-21T19:34:43.136Z,31.17
2019-02-21T19:37:13.108Z,32.00
2019-02-21T19:39:43.282Z,34.10
2019-02-21T19:42:13.500Z,29.23
2019-02-21T19:44:43.341Z,32.90
2019-02-21T19:47:13.394Z,32.57
2019-02-21T19:50:02.177Z,30.03
2019-02-21T19:53:09.996Z,33.37
2019-02-21T19:55:58.847Z,35.37
2019-02-21T19:59:10.687Z,32.10
2019-02-21T20:01:41.562Z,34.63
2019-02-21T20:07:32.344Z,32.27
2019-02-21T20:10:20.393Z,34.33
2019-02-21T20:15:52.019Z,35.63
2019-02-21T20:18:51.031Z,30.90
2019-02-21T20:21:39.968Z,34.70
2019-02-21T20:24:21.662Z,30.67
2019-02-21T20:29:45.550Z,35.90
2019-02-21T20:32:27.051Z,32.00
2019-02-21T20:35:08.759Z,32.40
2019-02-21T20:37:38.943Z,30.07
2019-02-21T20:40:09.893Z,33.03
2019-02-21T20:42:40.054Z,34.80
2019-02-21T20:45:10.535Z,33.73
2019-02-21T20:51:26.116Z,37.07
2019-02-21T20:57:03.916Z,31.73
2019-02-21T20:59:34.276Z,37.80
2019-02-21T21:02:04.277Z,37.20
2019-02-21T21:04:34.242Z,37.17
2019-02-21T21:07:06.539Z,31.47
2019-02-21T21:09:36.438Z,31.73
2019-02-21T21:12:06.493Z,32.27
2019-02-21T21:14:36.417Z,32.30
2019-02-21T21:17:06.337Z,36.07
2019-02-21T21:19:36.781Z,35.33
2019-02-21T21:22:06.787Z,32.70
2019-02-21T21:24:36.648Z,30.40
2019-02-21T21:27:06.653Z,32.60
2019-02-21T21:29:38.681Z,34.23
2019-02-21T21:32:08.547Z,32.93
2019-02-21T21:34:38.455Z,30.50
2019-02-21T21:37:08.605Z,35.23
2019-02-21T21:39:38.488Z,32.90
2019-02-21T21:42:08.509Z,38.03
2019-02-21T21:44:57.454Z,38.70
2019-02-21T21:47:46.221Z,37.73
2019-02-21T21:50:41.478Z,34.60
2019-02-21T21:53:11.352Z,36.00
2019-02-21T21:55:44.257Z,36.40
2019-02-21T21:58:17.071Z,33.60
2019-02-21T22:00:48.339Z,38.63
2019-02-21T22:03:18.445Z,36.20
2019-02-21T22:05:51.889Z,35.50
2019-02-21T22:08:21.652Z,37.57
2019-02-21T22:10:54.167Z,41.93
2019-02-21T22:13:23.968Z,33.77
2019-02-21T22:19:02.981Z,39.07
2019-02-21T22:25:00.388Z,38.60
2019-02-21T22:27:49.183Z,34.03
2019-02-21T22:30:37.968Z,38.20
2019-02-21T22:36:19.477Z,41.83
2019-02-21T22:39:26.500Z,41.23
2019-02-21T22:42:15.246Z,37.80
2019-02-21T22:44:45.385Z,36.20
2019-02-21T22:47:16.797Z,36.93
2019-02-21T22:49:46.664Z,41.53
2019-02-21T22:52:20.245Z,35.27
2019-02-21T22:54:50.060Z,40.07
2019-02-21T22:57:25.559Z,48.03
2019-02-21T22:59:55.676Z,38.10
2019-02-21T23:02:25.991Z,40.57
2019-02-21T23:05:15.920Z,38.97
2019-02-21T23:08:30.251Z,39.87
2019-02-21T23:11:00.139Z,33.60
2019-02-21T23:13:30.255Z,38.80
2019-02-21T23:16:00.027Z,39.20
2019-02-21T23:18:32.271Z,41.73
2019-02-21T23:21:02.336Z,37.57
2019-02-21T23:23:34.767Z,37.47
2019-02-21T23:26:04.562Z,41.30
2019-02-21T23:28:41.298Z,38.20
2019-02-21T23:31:11.260Z,39.90
2019-02-21T23:33:48.880Z,40.63
2019-02-21T23:36:18.901Z,39.30
2019-02-21T23:38:48.633Z,41.47
2019-02-21T23:41:18.470Z,39.40
2019-02-21T23:43:48.253Z,36.83
2019-02-21T23:46:17.977Z,35.47
2019-02-21T23:48:50.315Z,40.60
2019-02-21T23:51:20.097Z,39.77
2019-02-21T23:54:02.480Z,40.50
2019-02-21T23:56:24.331Z,39.70
2019-02-21T23:58:54.080Z,41.73
